createdAt,value
2018-09-15T00:00:58.458Z,17.00
2018-09-15T00:03:27.340Z,17.00
2018-09-15T00:05:56.043Z,16.90
2018-09-15T00:08:24.708Z,17.00
2018-09-15T00:10:53.499Z,17.00
2018-09-15T00:13:22.994Z,17.00
2018-09-15T00:15:52.157Z,17.00
2018-09-15T00:18:21.452Z,17.00
2018-09-15T00:20:50.260Z,17.10
2018-09-15T00:23:19.093Z,17.40
2018-09-15T00:25:47.812Z,17.10
2018-09-15T00:28:16.476Z,17.20
2018-09-15T00:30:45.278Z,17.10
2018-09-15T00:33:14.041Z,17.00
2018-09-15T00:35:42.801Z,17.00
2018-09-15T00:38:11.560Z,17.00
2018-09-15T00:40:40.268Z,17.00
2018-09-15T00:43:09.001Z,17.00
2018-09-15T00:45:37.811Z,17.00
2018-09-15T00:48:06.593Z,17.00
2018-09-15T00:50:35.389Z,17.00
2018-09-15T00:53:04.197Z,17.00
2018-09-15T00:55:32.863Z,15.00
2018-09-15T00:58:01.514Z,17.00
2018-09-15T01:00:30.371Z,17.00
2018-09-15T01:02:59.086Z,17.10
2018-09-15T01:05:27.752Z,17.20
2018-09-15T01:07:56.820Z,17.30
2018-09-15T01:10:25.695Z,17.20
2018-09-15T01:12:57.670Z,17.20
2018-09-15T01:15:26.381Z,17.20
2018-09-15T01:17:55.249Z,17.20
2018-09-15T01:20:24.371Z,17.20
2018-09-15T01:22:53.050Z,17.00
2018-09-15T01:25:22.084Z,16.90
2018-09-15T01:27:52.614Z,16.50
2018-09-15T01:30:21.342Z,16.80
2018-09-15T01:32:50.243Z,16.70
2018-09-15T01:35:19.182Z,16.60
2018-09-15T01:37:47.766Z,16.60
2018-09-15T01:40:16.537Z,16.60
2018-09-15T01:42:48.423Z,16.60
2018-09-15T01:45:17.002Z,16.70
2018-09-15T01:47:46.083Z,16.70
2018-09-15T01:50:14.887Z,16.40
2018-09-15T01:52:44.180Z,16.70
2018-09-15T01:55:12.965Z,16.60
2018-09-15T01:57:41.760Z,16.60
2018-09-15T02:00:10.519Z,16.50
2018-09-15T02:02:39.235Z,16.50
2018-09-15T02:05:07.903Z,15.70
2018-09-15T02:07:36.607Z,16.40
2018-09-15T02:10:05.549Z,16.40
2018-09-15T02:12:35.452Z,14.90
2018-09-15T02:15:05.818Z,16.30
2018-09-15T02:17:34.566Z,16.30
2018-09-15T02:20:03.331Z,16.20
2018-09-15T02:22:32.146Z,16.20
2018-09-15T02:25:00.786Z,16.20
2018-09-15T02:27:29.750Z,16.30
2018-09-15T02:29:58.303Z,15.50
2018-09-15T02:32:26.978Z,16.30
2018-09-15T02:34:55.834Z,16.40
2018-09-15T02:37:24.484Z,16.40
2018-09-15T02:39:53.748Z,16.40
2018-09-15T02:42:22.414Z,16.00
2018-09-15T02:44:51.124Z,15.90
2018-09-15T02:47:19.816Z,15.10
2018-09-15T02:49:48.507Z,15.90
2018-09-15T02:52:17.096Z,16.00
2018-09-15T02:54:45.699Z,16.10
2018-09-15T02:57:14.303Z,16.30
2018-09-15T02:59:42.887Z,16.30
2018-09-15T03:02:11.594Z,16.30
2018-09-15T03:04:40.249Z,16.30
2018-09-15T03:07:08.825Z,16.30
2018-09-15T03:09:37.582Z,16.40
2018-09-15T03:12:06.324Z,16.40
2018-09-15T03:14:35.020Z,16.50
2018-09-15T03:17:03.565Z,16.50
2018-09-15T03:19:32.375Z,16.50
2018-09-15T03:22:01.076Z,17.50
2018-09-15T03:24:29.765Z,16.40
2018-09-15T03:26:58.410Z,16.40
2018-09-15T03:29:26.997Z,16.40
2018-09-15T03:31:55.766Z,16.40
2018-09-15T03:34:24.530Z,16.40
2018-09-15T03:36:53.229Z,16.30
2018-09-15T03:39:22.019Z,16.30
2018-09-15T03:41:50.771Z,16.30
2018-09-15T03:44:19.945Z,16.30
2018-09-15T03:46:48.672Z,16.30
2018-09-15T03:49:17.486Z,16.30
2018-09-15T03:51:46.191Z,16.40
2018-09-15T03:54:17.982Z,16.40
2018-09-15T03:56:46.692Z,16.40
2018-09-15T03:59:16.892Z,16.50
2018-09-15T04:01:45.847Z,16.50
2018-09-15T04:04:14.619Z,16.50
2018-09-15T04:06:43.435Z,16.50
2018-09-15T04:09:14.075Z,16.50
2018-09-15T04:11:42.906Z,16.50
2018-09-15T04:14:11.641Z,16.50
2018-09-15T04:16:40.328Z,14.30
2018-09-15T04:19:08.922Z,16.50
2018-09-15T04:21:37.663Z,16.50
2018-09-15T04:24:06.399Z,16.40
2018-09-15T04:26:35.158Z,16.40
2018-09-15T04:29:04.468Z,16.30
2018-09-15T04:31:33.149Z,16.30
2018-09-15T04:34:01.815Z,16.30
2018-09-15T04:36:30.521Z,16.30
2018-09-15T04:38:59.252Z,16.30
2018-09-15T04:41:27.940Z,16.40
2018-09-15T04:43:56.500Z,16.30
2018-09-15T04:46:25.260Z,16.40
2018-09-15T04:48:53.932Z,16.40
2018-09-15T04:51:22.554Z,16.40
2018-09-15T04:53:51.314Z,14.70
2018-09-15T04:56:19.887Z,16.30
2018-09-15T04:58:48.636Z,16.00
2018-09-15T05:01:17.270Z,16.40
2018-09-15T05:03:46.167Z,16.40
2018-09-15T05:06:14.839Z,16.40
2018-09-15T05:08:43.478Z,16.40
2018-09-15T05:11:12.254Z,16.40
2018-09-15T05:13:40.990Z,16.60
2018-09-15T05:16:09.832Z,15.60
2018-09-15T05:18:38.418Z,16.50
2018-09-15T05:21:07.060Z,16.60
2018-09-15T05:23:35.977Z,16.60
2018-09-15T05:26:05.217Z,16.60
2018-09-15T05:28:34.029Z,16.60
2018-09-15T05:31:02.756Z,16.60
2018-09-15T05:33:31.416Z,16.60
2018-09-15T05:36:00.106Z,16.60
2018-09-15T05:39:52.783Z,16.50
2018-09-15T05:42:21.396Z,16.60
2018-09-15T05:44:50.189Z,16.60
2018-09-15T05:47:19.111Z,16.70
2018-09-15T05:49:48.000Z,16.80
2018-09-15T05:52:16.534Z,16.80
2018-09-15T05:54:45.151Z,17.10
2018-09-15T05:57:13.857Z,16.70
2018-09-15T05:59:42.588Z,15.70
2018-09-15T06:02:11.263Z,16.20
2018-09-15T06:04:39.943Z,16.80
2018-09-15T06:07:08.666Z,16.90
2018-09-15T06:09:37.562Z,16.90
2018-09-15T06:12:06.436Z,17.00
2018-09-15T06:14:35.103Z,17.20
2018-09-15T06:17:03.858Z,16.90
2018-09-15T06:19:32.522Z,16.90
2018-09-15T06:22:07.986Z,16.90
2018-09-15T06:24:47.463Z,16.90
2018-09-15T06:27:16.463Z,16.90
2018-09-15T06:29:45.103Z,16.90
2018-09-15T06:32:13.728Z,16.90
2018-09-15T06:34:42.520Z,16.30
2018-09-15T06:37:11.180Z,17.10
2018-09-15T06:39:40.446Z,17.20
2018-09-15T06:42:09.110Z,17.20
2018-09-15T06:44:37.896Z,17.20
2018-09-15T06:47:06.639Z,17.20
2018-09-15T06:49:35.500Z,17.20
2018-09-15T06:52:04.150Z,17.20
2018-09-15T06:54:32.898Z,17.30
2018-09-15T06:57:01.532Z,17.30
2018-09-15T06:59:30.498Z,17.40
2018-09-15T07:01:59.173Z,17.50
2018-09-15T07:04:27.880Z,17.50
2018-09-15T07:06:56.585Z,17.50
2018-09-15T07:09:25.360Z,17.50
2018-09-15T07:11:54.106Z,17.50
2018-09-15T07:14:22.782Z,17.60
2018-09-15T07:16:51.598Z,17.50
2018-09-15T07:19:20.366Z,17.50
2018-09-15T07:21:49.035Z,17.50
2018-09-15T07:24:17.718Z,17.60
2018-09-15T07:26:47.041Z,17.50
2018-09-15T07:29:16.865Z,17.50
2018-09-15T07:31:45.942Z,17.70
2018-09-15T07:34:14.639Z,17.90
2018-09-15T07:36:43.467Z,17.90
2018-09-15T07:39:12.506Z,18.00
2018-09-15T07:41:41.667Z,18.00
2018-09-15T07:44:10.326Z,18.00
2018-09-15T07:46:39.079Z,18.00
2018-09-15T07:49:07.878Z,18.10
2018-09-15T07:51:36.894Z,18.20
2018-09-15T07:54:05.715Z,18.30
2018-09-15T07:56:34.739Z,18.40
2018-09-15T07:59:03.412Z,18.40
2018-09-15T08:01:32.407Z,18.50
2018-09-15T08:04:01.209Z,18.40
2018-09-15T08:06:30.651Z,18.50
2018-09-15T08:08:59.945Z,18.60
2018-09-15T08:11:28.629Z,18.70
2018-09-15T08:13:57.415Z,18.60
2018-09-15T08:16:27.061Z,18.70
2018-09-15T08:18:57.161Z,18.70
2018-09-15T08:21:25.946Z,20.40
2018-09-15T08:23:54.814Z,19.00
2018-09-15T08:26:23.877Z,19.30
2018-09-15T08:28:52.494Z,19.50
2018-09-15T08:31:21.182Z,19.60
2018-09-15T08:33:50.075Z,19.80
2018-09-15T08:36:18.831Z,19.90
2018-09-15T08:38:48.263Z,18.60
2018-09-15T08:41:17.172Z,19.70
2018-09-15T08:43:45.816Z,19.70
2018-09-15T08:46:14.600Z,19.60
2018-09-15T08:48:43.415Z,19.60
2018-09-15T08:51:12.211Z,19.70
2018-09-15T08:53:41.268Z,19.90
2018-09-15T08:56:09.992Z,19.60
2018-09-15T08:58:38.662Z,19.50
2018-09-15T09:01:07.398Z,19.30
2018-09-15T09:03:38.239Z,19.50
2018-09-15T09:06:07.052Z,20.00
2018-09-15T09:08:35.765Z,20.40
2018-09-15T09:11:04.570Z,19.90
2018-09-15T09:13:33.263Z,20.90
2018-09-15T09:16:02.039Z,21.00
2018-09-15T09:18:30.743Z,19.50
2018-09-15T09:20:59.628Z,20.00
2018-09-15T09:23:28.330Z,20.20
2018-09-15T09:25:57.017Z,20.30
2018-09-15T09:28:25.662Z,20.40
2018-09-15T09:30:57.810Z,20.30
2018-09-15T09:33:26.574Z,20.50
2018-09-15T09:35:55.311Z,20.60
2018-09-15T09:38:24.085Z,21.50
2018-09-15T09:40:53.020Z,20.60
2018-09-15T09:43:21.919Z,20.50
2018-09-15T09:45:50.746Z,20.30
2018-09-15T09:48:19.589Z,20.30
2018-09-15T09:50:48.264Z,20.30
2018-09-15T09:53:16.866Z,20.20
2018-09-15T09:55:45.631Z,20.30
2018-09-15T09:58:14.982Z,20.50
2018-09-15T10:00:49.028Z,20.60
2018-09-15T10:03:17.763Z,20.50
2018-09-15T10:05:46.439Z,20.50
2018-09-15T10:08:15.233Z,20.80
2018-09-15T10:10:43.951Z,21.80
2018-09-15T10:13:12.643Z,24.00
2018-09-15T10:15:41.382Z,22.80
2018-09-15T10:18:10.068Z,23.00
2018-09-15T10:20:38.630Z,23.70
2018-09-15T10:23:07.386Z,24.00
2018-09-15T10:25:36.140Z,24.40
2018-09-15T10:28:04.976Z,24.80
2018-09-15T10:30:33.694Z,25.00
2018-09-15T10:33:02.574Z,25.00
2018-09-15T10:35:31.333Z,25.00
2018-09-15T10:38:00.069Z,25.00
2018-09-15T10:40:29.080Z,25.50
2018-09-15T10:42:57.678Z,25.50
2018-09-15T10:45:26.543Z,25.90
2018-09-15T10:47:55.940Z,26.40
2018-09-15T10:50:25.126Z,26.90
2018-09-15T10:52:53.814Z,26.80
2018-09-15T10:55:22.615Z,27.30
2018-09-15T10:57:51.416Z,26.80
2018-09-15T11:00:20.365Z,26.60
2018-09-15T11:02:49.052Z,26.70
2018-09-15T11:05:17.640Z,25.50
2018-09-15T11:07:46.414Z,26.10
2018-09-15T11:10:15.038Z,27.40
2018-09-15T11:12:43.787Z,27.30
2018-09-15T11:15:12.575Z,26.60
2018-09-15T11:17:41.369Z,26.50
2018-09-15T11:20:10.053Z,26.80
2018-09-15T11:22:38.791Z,27.10
2018-09-15T11:25:07.446Z,27.10
2018-09-15T11:27:36.198Z,27.50
2018-09-15T11:31:34.184Z,28.40
2018-09-15T11:34:02.943Z,28.20
2018-09-15T11:36:31.629Z,28.30
2018-09-15T11:39:00.359Z,28.40
2018-09-15T11:41:29.120Z,28.00
2018-09-15T11:43:57.876Z,28.20
2018-09-15T11:46:26.626Z,28.20
2018-09-15T11:48:55.379Z,28.40
2018-09-15T11:51:24.449Z,28.20
2018-09-15T11:53:53.222Z,27.60
2018-09-15T11:56:21.895Z,28.10
2018-09-15T11:58:50.735Z,28.30
2018-09-15T12:01:19.491Z,28.50
2018-09-15T12:03:48.398Z,28.60
2018-09-15T12:06:17.107Z,28.90
2018-09-15T12:08:45.979Z,29.40
2018-09-15T12:11:14.813Z,28.30
2018-09-15T12:13:43.437Z,28.10
2018-09-15T12:16:12.095Z,27.80
2018-09-15T12:18:40.675Z,26.80
2018-09-15T12:21:09.247Z,27.00
2018-09-15T12:23:37.958Z,26.70
2018-09-15T12:26:06.796Z,26.60
2018-09-15T12:28:35.568Z,26.10
2018-09-15T12:31:04.613Z,26.50
2018-09-15T12:33:33.356Z,25.40
2018-09-15T12:36:02.238Z,25.10
2018-09-15T12:38:31.006Z,24.80
2018-09-15T12:41:01.411Z,24.60
2018-09-15T12:43:30.153Z,23.80
2018-09-15T12:45:58.914Z,24.40
2018-09-15T12:48:29.441Z,24.40
2018-09-15T12:50:58.255Z,24.50
2018-09-15T12:53:27.027Z,24.80
2018-09-15T12:55:55.772Z,24.80
2018-09-15T12:58:24.701Z,24.80
2018-09-15T13:00:53.823Z,25.00
2018-09-15T13:03:22.531Z,24.70
2018-09-15T13:05:51.349Z,24.50
2018-09-15T13:08:24.249Z,24.30
2018-09-15T13:10:53.030Z,24.10
2018-09-15T13:13:21.740Z,23.90
2018-09-15T13:15:50.487Z,23.80
2018-09-15T13:18:19.224Z,23.80
2018-09-15T13:20:48.010Z,24.80
2018-09-15T13:23:16.592Z,24.50
2018-09-15T13:25:47.772Z,24.60
2018-09-15T13:28:16.279Z,24.50
2018-09-15T13:30:45.698Z,24.30
2018-09-15T13:33:14.515Z,24.20
2018-09-15T13:35:43.103Z,24.40
2018-09-15T13:38:11.840Z,23.50
2018-09-15T13:40:40.571Z,24.30
2018-09-15T13:43:09.234Z,24.10
2018-09-15T13:45:37.873Z,24.00
2018-09-15T13:48:06.781Z,24.10
2018-09-15T13:50:35.564Z,24.20
2018-09-15T13:53:04.424Z,24.50
2018-09-15T13:55:33.035Z,24.80
2018-09-15T13:58:01.772Z,24.70
2018-09-15T14:00:30.511Z,24.70
2018-09-15T14:02:59.192Z,24.60
2018-09-15T14:05:27.935Z,24.50
2018-09-15T14:07:58.413Z,24.50
2018-09-15T14:10:27.326Z,24.00
2018-09-15T14:12:56.091Z,24.00
2018-09-15T14:15:24.919Z,24.50
2018-09-15T14:17:53.571Z,24.40
2018-09-15T14:20:22.342Z,24.30
2018-09-15T14:22:50.976Z,24.40
2018-09-15T14:25:19.622Z,24.40
2018-09-15T14:27:48.839Z,24.40
2018-09-15T14:30:17.580Z,24.50
2018-09-15T14:32:46.386Z,23.30
2018-09-15T14:35:15.127Z,23.30
2018-09-15T14:37:43.896Z,24.20
2018-09-15T14:40:12.754Z,24.30
2018-09-15T14:42:41.452Z,24.30
2018-09-15T14:45:10.123Z,24.40
2018-09-15T14:47:39.140Z,24.60
2018-09-15T14:50:07.947Z,24.50
2018-09-15T14:52:45.612Z,24.30
2018-09-15T14:55:18.984Z,24.20
2018-09-15T14:57:49.867Z,24.10
2018-09-15T15:00:18.534Z,25.30
2018-09-15T15:02:50.832Z,24.10
2018-09-15T15:05:19.515Z,23.60
2018-09-15T15:07:48.819Z,24.00
2018-09-15T15:10:18.594Z,23.80
2018-09-15T15:12:47.409Z,23.70
2018-09-15T15:15:21.035Z,23.60
2018-09-15T15:17:51.127Z,23.50
2018-09-15T15:20:19.789Z,23.40
2018-09-15T15:22:48.545Z,23.40
2018-09-15T15:25:17.215Z,23.40
2018-09-15T15:27:45.924Z,23.50
2018-09-15T15:30:14.592Z,23.40
2018-09-15T15:32:43.350Z,23.30
2018-09-15T15:35:12.106Z,23.30
2018-09-15T15:37:42.312Z,23.20
2018-09-15T15:40:11.094Z,22.20
2018-09-15T15:42:40.256Z,23.20
2018-09-15T15:45:08.831Z,23.20
2018-09-15T15:47:38.050Z,23.20
2018-09-15T15:50:06.813Z,23.10
2018-09-15T15:52:35.462Z,23.10
2018-09-15T15:55:05.487Z,23.00
2018-09-15T15:57:34.111Z,23.00
2018-09-15T16:00:03.231Z,23.00
2018-09-15T16:02:32.117Z,23.00
2018-09-15T16:05:00.831Z,22.90
2018-09-15T16:07:29.678Z,23.00
2018-09-15T16:09:58.429Z,23.00
2018-09-15T16:12:31.031Z,22.80
2018-09-15T16:14:59.798Z,22.90
2018-09-15T16:17:28.605Z,22.90
2018-09-15T16:19:57.413Z,22.90
2018-09-15T16:22:26.182Z,22.90
2018-09-15T16:24:54.839Z,22.80
2018-09-15T16:27:24.403Z,22.70
2018-09-15T16:29:53.300Z,22.60
2018-09-15T16:32:21.975Z,22.50
2018-09-15T16:34:50.721Z,22.00
2018-09-15T16:37:19.410Z,22.40
2018-09-15T16:39:48.205Z,22.30
2018-09-15T16:42:17.052Z,22.20
2018-09-15T16:44:45.934Z,22.20
2018-09-15T16:47:14.614Z,22.10
2018-09-15T16:49:43.394Z,22.10
2018-09-15T16:52:12.052Z,22.20
2018-09-15T16:54:40.731Z,22.00
2018-09-15T16:57:09.675Z,22.00
2018-09-15T16:59:38.246Z,21.90
2018-09-15T17:02:06.998Z,21.90
2018-09-15T17:04:35.835Z,21.80
2018-09-15T17:07:04.443Z,21.80
2018-09-15T17:09:33.236Z,21.70
2018-09-15T17:12:02.199Z,21.60
2018-09-15T17:14:31.239Z,21.60
2018-09-15T17:16:59.968Z,21.50
2018-09-15T17:19:28.780Z,21.40
2018-09-15T17:21:57.463Z,21.40
2018-09-15T17:24:26.161Z,21.30
2018-09-15T17:26:55.055Z,21.20
2018-09-15T17:29:23.671Z,21.20
2018-09-15T17:31:52.467Z,21.20
2018-09-15T17:34:21.181Z,21.20
2018-09-15T17:36:49.968Z,21.20
2018-09-15T17:39:18.670Z,21.10
2018-09-15T17:41:47.609Z,21.10
2018-09-15T17:44:16.909Z,21.00
2018-09-15T17:46:45.572Z,21.00
2018-09-15T17:49:14.306Z,21.00
2018-09-15T17:51:42.938Z,20.40
2018-09-15T17:57:06.357Z,20.60
2018-09-15T17:59:35.088Z,20.50
2018-09-15T18:02:03.887Z,20.30
2018-09-15T18:04:32.798Z,20.20
2018-09-15T18:07:01.510Z,20.20
2018-09-15T18:09:30.672Z,20.20
2018-09-15T18:11:59.339Z,20.20
2018-09-15T18:14:28.285Z,20.20
2018-09-15T18:16:57.095Z,20.00
2018-09-15T18:19:27.934Z,20.20
2018-09-15T18:21:56.730Z,20.10
2018-09-15T18:24:25.394Z,20.10
2018-09-15T18:26:58.642Z,20.10
2018-09-15T18:29:27.537Z,20.00
2018-09-15T18:31:56.289Z,19.90
2018-09-15T18:34:25.980Z,19.80
2018-09-15T18:36:57.192Z,19.80
2018-09-15T18:39:25.862Z,19.80
2018-09-15T18:41:54.544Z,19.70
2018-09-15T18:44:24.462Z,19.70
2018-09-15T18:46:54.007Z,17.80
2018-09-15T18:49:23.944Z,18.00
2018-09-15T18:51:52.711Z,20.90
2018-09-15T18:54:21.679Z,19.60
2018-09-15T18:56:50.465Z,19.60
2018-09-15T18:59:19.210Z,19.70
2018-09-15T19:01:47.938Z,19.70
2018-09-15T19:04:16.636Z,19.70
2018-09-15T19:06:45.271Z,19.70
2018-09-15T19:09:14.111Z,19.60
2018-09-15T19:11:42.874Z,18.20
2018-09-15T19:14:12.494Z,19.80
2018-09-15T19:16:43.936Z,19.80
2018-09-15T19:19:12.700Z,19.80
2018-09-15T19:21:41.386Z,19.80
2018-09-15T19:24:10.136Z,19.80
2018-09-15T19:26:39.053Z,19.80
2018-09-15T19:29:07.718Z,19.80
2018-09-15T19:31:36.611Z,19.80
2018-09-15T19:34:05.546Z,19.80
2018-09-15T19:36:34.359Z,19.80
2018-09-15T19:39:04.267Z,19.80
2018-09-15T19:41:33.398Z,19.80
2018-09-15T19:44:02.443Z,19.70
2018-09-15T19:46:31.218Z,19.70
2018-09-15T19:48:59.951Z,19.70
2018-09-15T19:51:29.089Z,19.70
2018-09-15T19:53:57.786Z,20.00
2018-09-15T19:56:28.203Z,19.50
2018-09-15T19:58:57.047Z,18.90
2018-09-15T20:01:25.780Z,19.30
2018-09-15T20:03:54.410Z,19.30
2018-09-15T20:06:23.153Z,19.40
2018-09-15T20:08:51.841Z,19.40
2018-09-15T20:11:20.590Z,18.20
2018-09-15T20:13:49.429Z,19.40
2018-09-15T20:16:18.806Z,19.40
2018-09-15T20:18:46.247Z,19.70
2018-09-15T20:21:13.712Z,19.40
2018-09-15T20:23:42.622Z,19.40
2018-09-15T20:26:11.294Z,19.40
2018-09-15T20:28:41.796Z,19.40
2018-09-15T20:31:10.653Z,19.50
2018-09-15T20:33:39.402Z,19.50
2018-09-15T20:36:08.563Z,19.40
2018-09-15T20:38:37.339Z,19.60
2018-09-15T20:41:09.274Z,19.70
2018-09-15T20:43:39.191Z,19.20
2018-09-15T20:46:09.153Z,19.70
2018-09-15T20:48:37.826Z,19.60
2018-09-15T20:51:06.528Z,19.60
2018-09-15T20:53:37.913Z,19.10
2018-09-15T20:56:06.668Z,19.50
2018-09-15T20:58:35.438Z,19.40
2018-09-15T21:01:04.339Z,19.40
2018-09-15T21:03:36.502Z,18.10
2018-09-15T21:06:05.105Z,18.20
2018-09-15T21:08:35.306Z,19.60
2018-09-15T21:11:04.112Z,19.60
2018-09-15T21:13:36.253Z,19.60
2018-09-15T21:16:05.175Z,19.60
2018-09-15T21:18:33.815Z,19.60
2018-09-15T21:21:02.526Z,19.60
2018-09-15T21:23:31.279Z,20.50
2018-09-15T21:25:59.998Z,19.60
2018-09-15T21:28:28.676Z,19.60
2018-09-15T21:30:57.410Z,19.60
2018-09-15T21:33:26.072Z,20.00
2018-09-15T21:35:56.049Z,21.50
2018-09-15T21:38:27.510Z,18.50
2018-09-15T21:40:56.617Z,19.40
2018-09-15T21:43:25.467Z,19.30
2018-09-15T21:45:54.518Z,19.30
2018-09-15T21:48:23.164Z,19.40
2018-09-15T21:50:52.542Z,19.40
2018-09-15T21:53:21.312Z,19.30
2018-09-15T21:55:50.268Z,19.30
2018-09-15T21:58:19.020Z,19.20
2018-09-15T22:12:41.115Z,19.20
2018-09-15T22:15:25.426Z,19.00
2018-09-15T22:17:55.978Z,18.40
2018-09-15T22:20:24.749Z,19.00
2018-09-15T22:22:53.877Z,18.90
2018-09-15T22:25:22.670Z,19.00
2018-09-15T22:27:51.284Z,18.90
2018-09-15T22:30:20.457Z,19.00
2018-09-15T22:32:50.107Z,19.00
2018-09-15T22:35:19.007Z,19.10
2018-09-15T22:37:47.825Z,19.00
2018-09-15T22:40:16.627Z,19.00
2018-09-15T22:42:45.344Z,19.00
2018-09-15T22:45:14.077Z,18.90
2018-09-15T22:47:42.797Z,18.90
2018-09-15T22:50:11.624Z,17.80
2018-09-15T22:52:40.275Z,18.90
2018-09-15T22:55:09.433Z,18.90
2018-09-15T22:57:38.361Z,18.90
2018-09-15T23:00:07.500Z,18.80
2018-09-15T23:02:36.229Z,18.80
2018-09-15T23:05:07.789Z,18.80
2018-09-15T23:07:36.808Z,18.80
2018-09-15T23:10:06.126Z,18.80
2018-09-15T23:12:34.998Z,18.80
2018-09-15T23:15:03.990Z,18.90
2018-09-15T23:17:33.512Z,18.90
2018-09-15T23:20:02.104Z,18.90
2018-09-15T23:22:30.926Z,18.80
2018-09-15T23:24:59.702Z,18.80
2018-09-15T23:27:28.455Z,18.80
2018-09-15T23:29:57.082Z,18.80
2018-09-15T23:32:25.869Z,17.90
2018-09-15T23:34:54.616Z,18.80
2018-09-15T23:37:23.302Z,18.80
2018-09-15T23:39:51.919Z,18.80
2018-09-15T23:42:21.022Z,18.80
2018-09-15T23:51:33.143Z,18.80
2018-09-15T23:54:01.823Z,18.70
2018-09-15T23:56:30.370Z,18.60
2018-09-15T23:58:59.257Z,18.50
